sensor_id;sensor_type;location;lat;lon;timestamp;pressure;altitude;pressure_sealevel;temperature;humidity
22938;BME280;11634;42.734;23.298;2023-06-10T00:00:43;94910.81;;;18.14;100.00
22938;BME280;11634;42.734;23.298;2023-06-10T00:03:10;94890.41;;;18.02;100.00
22938;BME280;11634;42.734;23.298;2023-06-10T00:05:36;94907.19;;;18.15;100.00
22938;BME280;11634;42.734;23.298;2023-06-10T00:08:05;94891.66;;;18.06;100.00
22938;BME280;11634;42.734;23.298;2023-06-10T00:10:38;94902.81;;;18.22;100.00
22938;BME280;11634;42.734;23.298;2023-06-10T00:13:04;94891.94;;;18.32;100.00
22938;BME280;11634;42.734;23.298;2023-06-10T00:15:30;94895.03;;;18.35;100.00
22938;BME280;11634;42.734;23.298;2023-06-10T00:17:57;94896.91;;;18.41;100.00
22938;BME280;11634;42.734;23.298;2023-06-10T00:20:22;94894.03;;;18.36;100.00
22938;BME280;11634;42.734;23.298;2023-06-10T00:22:51;94888.13;;;18.34;100.00
22938;BME280;11634;42.734;23.298;2023-06-10T00:25:18;94897.47;;;18.37;100.00
22938;BME280;11634;42.734;23.298;2023-06-10T00:27:43;94892.31;;;18.29;100.00
22938;BME280;11634;42.734;23.298;2023-06-10T00:30:10;94903.75;;;18.36;100.00
22938;BME280;11634;42.734;23.298;2023-06-10T00:32:36;94894.22;;;18.35;100.00
22938;BME280;11634;42.734;23.298;2023-06-10T00:35:03;94868.31;;;18.17;100.00
22938;BME280;11634;42.734;23.298;2023-06-10T00:37:30;94902.63;;;18.45;100.00
22938;BME280;11634;42.734;23.298;2023-06-10T00:39:57;94890.53;;;18.29;100.00
22938;BME280;11634;42.734;23.298;2023-06-10T00:42:24;94892.94;;;18.52;100.00
22938;BME280;11634;42.734;23.298;2023-06-10T00:44:51;94910.47;;;18.65;100.00
22938;BME280;11634;42.734;23.298;2023-06-10T00:47:17;94897.75;;;18.69;100.00
22938;BME280;11634;42.734;23.298;2023-06-10T00:49:44;94891.34;;;18.57;100.00
22938;BME280;11634;42.734;23.298;2023-06-10T00:52:11;94865.19;;;18.56;100.00
22938;BME280;11634;42.734;23.298;2023-06-10T00:54:37;94908.53;;;18.74;100.00
22938;BME280;11634;42.734;23.298;2023-06-10T00:57:04;94918.44;;;18.72;100.00
22938;BME280;11634;42.734;23.298;2023-06-10T00:59:31;94933.03;;;18.68;100.00
22938;BME280;11634;42.734;23.298;2023-06-10T01:01:57;94921.03;;;18.65;100.00
22938;BME280;11634;42.734;23.298;2023-06-10T01:04:23;94927.00;;;18.74;100.00
22938;BME280;11634;42.734;23.298;2023-06-10T01:12:20;94878.94;;;18.24;100.00
22938;BME280;11634;42.734;23.298;2023-06-10T01:14:48;94905.84;;;18.47;100.00
22938;BME280;11634;42.734;23.298;2023-06-10T01:17:16;94880.00;;;18.15;100.00
22938;BME280;11634;42.734;23.298;2023-06-10T01:19:44;94910.19;;;18.33;100.00
22938;BME280;11634;42.734;23.298;2023-06-10T01:22:12;94875.75;;;18.14;100.00
22938;BME280;11634;42.734;23.298;2023-06-10T01:24:41;94874.38;;;17.97;100.00
22938;BME280;11634;42.734;23.298;2023-06-10T01:27:14;94903.28;;;18.11;100.00
22938;BME280;11634;42.734;23.298;2023-06-10T01:29:50;94902.19;;;18.20;100.00
22938;BME280;11634;42.734;23.298;2023-06-10T01:32:23;94900.63;;;18.26;100.00
22938;BME280;11634;42.734;23.298;2023-06-10T01:34:52;94897.50;;;18.16;100.00
22938;BME280;11634;42.734;23.298;2023-06-10T01:37:22;94891.13;;;18.10;100.00
22938;BME280;11634;42.734;23.298;2023-06-10T01:39:50;94892.91;;;18.10;100.00
22938;BME280;11634;42.734;23.298;2023-06-10T01:42:17;94866.53;;;18.04;100.00
22938;BME280;11634;42.734;23.298;2023-06-10T01:44:43;94868.59;;;18.08;100.00
22938;BME280;11634;42.734;23.298;2023-06-10T01:47:08;94866.97;;;18.07;100.00
22938;BME280;11634;42.734;23.298;2023-06-10T01:49:34;94848.16;;;17.89;100.00
22938;BME280;11634;42.734;23.298;2023-06-10T01:52:00;94837.69;;;17.96;100.00
22938;BME280;11634;42.734;23.298;2023-06-10T01:54:27;94839.16;;;18.05;100.00
22938;BME280;11634;42.734;23.298;2023-06-10T01:56:54;94826.97;;;17.97;100.00
22938;BME280;11634;42.734;23.298;2023-06-10T01:59:19;94866.63;;;18.31;100.00
22938;BME280;11634;42.734;23.298;2023-06-10T02:01:45;94848.09;;;18.24;100.00
22938;BME280;11634;42.734;23.298;2023-06-10T02:04:11;94863.16;;;18.30;100.00
22938;BME280;11634;42.734;23.298;2023-06-10T02:06:36;94860.75;;;18.35;100.00
22938;BME280;11634;42.734;23.298;2023-06-10T02:09:03;94865.03;;;18.36;100.00
22938;BME280;11634;42.734;23.298;2023-06-10T02:11:28;94857.34;;;18.41;100.00
22938;BME280;11634;42.734;23.298;2023-06-10T02:13:54;72344.94;;;18.38;100.00
22938;BME280;11634;42.734;23.298;2023-06-10T02:16:20;94841.94;;;18.38;100.00
22938;BME280;11634;42.734;23.298;2023-06-10T02:18:46;54402.53;;;-139.56;100.00
22938;BME280;11634;42.734;23.298;2023-06-10T02:21:14;54402.53;;;-139.56;100.00
22938;BME280;11634;42.734;23.298;2023-06-10T02:23:39;54402.53;;;-139.56;100.00
22938;BME280;11634;42.734;23.298;2023-06-10T02:26:05;54402.53;;;-139.56;100.00
22938;BME280;11634;42.734;23.298;2023-06-10T02:28:31;54402.53;;;-139.56;100.00
22938;BME280;11634;42.734;23.298;2023-06-10T02:30:58;54402.53;;;-139.56;100.00
22938;BME280;11634;42.734;23.298;2023-06-10T02:33:25;54402.53;;;-139.56;100.00
22938;BME280;11634;42.734;23.298;2023-06-10T02:35:51;54402.53;;;-139.56;100.00
22938;BME280;11634;42.734;23.298;2023-06-10T02:38:17;54402.53;;;-139.56;100.00
22938;BME280;11634;42.734;23.298;2023-06-10T02:40:44;54402.53;;;-139.56;100.00
22938;BME280;11634;42.734;23.298;2023-06-10T02:43:11;54402.53;;;-139.56;100.00
22938;BME280;11634;42.734;23.298;2023-06-10T02:45:37;54402.53;;;-139.56;100.00
22938;BME280;11634;42.734;23.298;2023-06-10T02:48:03;54402.53;;;-139.56;100.00
22938;BME280;11634;42.734;23.298;2023-06-10T02:50:31;54402.53;;;-139.56;100.00
22938;BME280;11634;42.734;23.298;2023-06-10T02:53:05;54402.53;;;-139.56;100.00
22938;BME280;11634;42.734;23.298;2023-06-10T02:55:32;54402.53;;;-139.56;100.00
22938;BME280;11634;42.734;23.298;2023-06-10T02:58:03;54402.53;;;-139.56;100.00
22938;BME280;11634;42.734;23.298;2023-06-10T03:00:31;54402.53;;;-139.56;100.00
22938;BME280;11634;42.734;23.298;2023-06-10T03:02:56;54402.53;;;-139.56;100.00
22938;BME280;11634;42.734;23.298;2023-06-10T03:05:27;54402.53;;;-139.56;100.00
22938;BME280;11634;42.734;23.298;2023-06-10T03:07:55;54402.53;;;-139.56;100.00
22938;BME280;11634;42.734;23.298;2023-06-10T03:10:24;54402.53;;;-139.56;100.00
22938;BME280;11634;42.734;23.298;2023-06-10T03:12:52;54402.53;;;-139.56;100.00
22938;BME280;11634;42.734;23.298;2023-06-10T03:15:18;54402.53;;;-139.56;100.00
22938;BME280;11634;42.734;23.298;2023-06-10T03:17:46;54402.53;;;-139.56;100.00
22938;BME280;11634;42.734;23.298;2023-06-10T03:20:13;54402.53;;;-139.56;100.00
22938;BME280;11634;42.734;23.298;2023-06-10T03:22:42;54402.53;;;-139.56;100.00
22938;BME280;11634;42.734;23.298;2023-06-10T03:25:09;54402.53;;;-139.56;100.00
22938;BME280;11634;42.734;23.298;2023-06-10T03:27:42;54402.53;;;-139.56;100.00
22938;BME280;11634;42.734;23.298;2023-06-10T03:30:09;54402.53;;;-139.56;100.00
22938;BME280;11634;42.734;23.298;2023-06-10T03:32:36;54402.53;;;-139.56;100.00
22938;BME280;11634;42.734;23.298;2023-06-10T03:35:06;54402.53;;;-139.56;100.00
22938;BME280;11634;42.734;23.298;2023-06-10T03:37:33;54402.53;;;-139.56;100.00
22938;BME280;11634;42.734;23.298;2023-06-10T03:39:58;54402.53;;;-139.56;100.00
22938;BME280;11634;42.734;23.298;2023-06-10T03:42:25;54402.53;;;-139.56;100.00
22938;BME280;11634;42.734;23.298;2023-06-10T03:44:51;54402.53;;;-139.56;100.00
22938;BME280;11634;42.734;23.298;2023-06-10T03:47:18;54402.53;;;-139.56;100.00
22938;BME280;11634;42.734;23.298;2023-06-10T03:49:43;54402.53;;;-139.56;100.00
22938;BME280;11634;42.734;23.298;2023-06-10T03:52:10;54402.53;;;-139.56;100.00
22938;BME280;11634;42.734;23.298;2023-06-10T03:54:36;54402.53;;;-139.56;100.00
22938;BME280;11634;42.734;23.298;2023-06-10T03:57:03;54402.53;;;-139.56;100.00
22938;BME280;11634;42.734;23.298;2023-06-10T03:59:29;54402.53;;;-139.56;100.00
22938;BME280;11634;42.734;23.298;2023-06-10T04:01:55;54402.53;;;-139.56;100.00
22938;BME280;11634;42.734;23.298;2023-06-10T04:04:21;54402.53;;;-139.56;100.00
22938;BME280;11634;42.734;23.298;2023-06-10T04:06:47;54402.53;;;-139.56;100.00
22938;BME280;11634;42.734;23.298;2023-06-10T04:09:16;54402.53;;;-139.56;100.00
22938;BME280;11634;42.734;23.298;2023-06-10T04:11:45;54402.53;;;-139.56;100.00
22938;BME280;11634;42.734;23.298;2023-06-10T04:14:12;54402.53;;;-139.56;100.00
22938;BME280;11634;42.734;23.298;2023-06-10T04:16:40;54402.53;;;-139.56;100.00
22938;BME280;11634;42.734;23.298;2023-06-10T04:19:07;54402.53;;;-139.56;100.00
22938;BME280;11634;42.734;23.298;2023-06-10T04:21:32;54402.53;;;-139.56;100.00
22938;BME280;11634;42.734;23.298;2023-06-10T04:23:58;54402.53;;;-139.56;100.00
22938;BME280;11634;42.734;23.298;2023-06-10T04:26:24;54402.53;;;-139.56;100.00
22938;BME280;11634;42.734;23.298;2023-06-10T04:28:52;54402.53;;;-139.56;100.00
22938;BME280;11634;42.734;23.298;2023-06-10T04:31:17;54402.53;;;-139.56;100.00
22938;BME280;11634;42.734;23.298;2023-06-10T04:33:43;54402.53;;;-139.56;100.00
22938;BME280;11634;42.734;23.298;2023-06-10T04:36:10;54402.53;;;-139.56;100.00
22938;BME280;11634;42.734;23.298;2023-06-10T04:38:36;54402.53;;;-139.56;100.00
22938;BME280;11634;42.734;23.298;2023-06-10T04:41:01;54402.53;;;-139.56;100.00
22938;BME280;11634;42.734;23.298;2023-06-10T04:43:31;54402.53;;;-139.56;100.00
22938;BME280;11634;42.734;23.298;2023-06-10T04:45:59;54402.53;;;-139.56;100.00
22938;BME280;11634;42.734;23.298;2023-06-10T04:48:25;54402.53;;;-139.56;100.00
22938;BME280;11634;42.734;23.298;2023-06-10T04:50:52;54402.53;;;-139.56;100.00
22938;BME280;11634;42.734;23.298;2023-06-10T04:53:21;54402.53;;;-139.56;100.00
22938;BME280;11634;42.734;23.298;2023-06-10T04:55:49;54402.53;;;-139.56;100.00
22938;BME280;11634;42.734;23.298;2023-06-10T04:58:14;54402.53;;;-139.56;100.00
22938;BME280;11634;42.734;23.298;2023-06-10T05:00:40;54402.53;;;-139.56;100.00
22938;BME280;11634;42.734;23.298;2023-06-10T05:03:06;54402.53;;;-139.56;100.00
22938;BME280;11634;42.734;23.298;2023-06-10T05:05:31;54402.53;;;-139.56;100.00
22938;BME280;11634;42.734;23.298;2023-06-10T05:07:57;54402.53;;;-139.56;100.00
22938;BME280;11634;42.734;23.298;2023-06-10T05:10:22;54402.53;;;-139.56;100.00
22938;BME280;11634;42.734;23.298;2023-06-10T05:12:49;54402.53;;;-139.56;100.00
22938;BME280;11634;42.734;23.298;2023-06-10T05:15:14;54402.53;;;-139.56;100.00
22938;BME280;11634;42.734;23.298;2023-06-10T05:17:40;54402.53;;;-139.56;100.00
22938;BME280;11634;42.734;23.298;2023-06-10T05:20:06;54402.53;;;-139.56;100.00
22938;BME280;11634;42.734;23.298;2023-06-10T05:22:32;54402.53;;;-139.56;100.00
22938;BME280;11634;42.734;23.298;2023-06-10T05:24:57;54402.53;;;-139.56;100.00
22938;BME280;11634;42.734;23.298;2023-06-10T05:27:26;54402.53;;;-139.56;100.00
22938;BME280;11634;42.734;23.298;2023-06-10T05:29:52;54402.53;;;-139.56;100.00
22938;BME280;11634;42.734;23.298;2023-06-10T05:32:18;54402.53;;;-139.56;100.00
22938;BME280;11634;42.734;23.298;2023-06-10T05:34:44;54402.53;;;-139.56;100.00
22938;BME280;11634;42.734;23.298;2023-06-10T05:37:10;54402.53;;;-139.56;100.00
22938;BME280;11634;42.734;23.298;2023-06-10T05:39:36;54402.53;;;-139.56;100.00
22938;BME280;11634;42.734;23.298;2023-06-10T05:42:08;54402.53;;;-139.56;100.00
22938;BME280;11634;42.734;23.298;2023-06-10T05:44:34;54402.53;;;-139.56;100.00
22938;BME280;11634;42.734;23.298;2023-06-10T05:46:59;54402.53;;;-139.56;100.00
22938;BME280;11634;42.734;23.298;2023-06-10T05:49:31;54402.53;;;-139.56;100.00
22938;BME280;11634;42.734;23.298;2023-06-10T05:51:59;54402.53;;;-139.56;100.00
22938;BME280;11634;42.734;23.298;2023-06-10T05:54:26;54402.53;;;-139.56;100.00
22938;BME280;11634;42.734;23.298;2023-06-10T05:56:52;54402.53;;;-139.56;100.00
22938;BME280;11634;42.734;23.298;2023-06-10T05:59:17;54402.53;;;-139.56;100.00
22938;BME280;11634;42.734;23.298;2023-06-10T06:01:43;54402.53;;;-139.56;100.00
22938;BME280;11634;42.734;23.298;2023-06-10T06:04:09;54402.53;;;-139.56;100.00
22938;BME280;11634;42.734;23.298;2023-06-10T06:06:38;54402.53;;;-139.56;100.00
22938;BME280;11634;42.734;23.298;2023-06-10T06:09:04;54402.53;;;-139.56;100.00
22938;BME280;11634;42.734;23.298;2023-06-10T06:11:29;54402.53;;;-139.56;100.00
22938;BME280;11634;42.734;23.298;2023-06-10T06:13:55;54402.53;;;-139.56;100.00
22938;BME280;11634;42.734;23.298;2023-06-10T06:16:21;54402.53;;;-139.56;100.00
22938;BME280;11634;42.734;23.298;2023-06-10T06:18:46;54402.53;;;-139.56;100.00
22938;BME280;11634;42.734;23.298;2023-06-10T06:21:12;54402.53;;;-139.56;100.00
22938;BME280;11634;42.734;23.298;2023-06-10T06:23:38;54402.53;;;-139.56;100.00
22938;BME280;11634;42.734;23.298;2023-06-10T06:26:03;54402.53;;;-139.56;100.00
22938;BME280;11634;42.734;23.298;2023-06-10T06:28:29;54402.53;;;-139.56;100.00
22938;BME280;11634;42.734;23.298;2023-06-10T06:30:56;54402.53;;;-139.56;100.00
22938;BME280;11634;42.734;23.298;2023-06-10T06:33:22;54402.53;;;-139.56;100.00
22938;BME280;11634;42.734;23.298;2023-06-10T06:35:48;54402.53;;;-139.56;100.00
22938;BME280;11634;42.734;23.298;2023-06-10T06:38:14;54402.53;;;-139.56;100.00
22938;BME280;11634;42.734;23.298;2023-06-10T06:40:40;54402.53;;;-139.56;100.00
22938;BME280;11634;42.734;23.298;2023-06-10T06:43:05;54402.53;;;-139.56;100.00
22938;BME280;11634;42.734;23.298;2023-06-10T06:45:33;54402.53;;;-139.56;100.00
22938;BME280;11634;42.734;23.298;2023-06-10T06:47:59;54402.53;;;-139.56;100.00
22938;BME280;11634;42.734;23.298;2023-06-10T06:50:25;54402.53;;;-139.56;100.00
22938;BME280;11634;42.734;23.298;2023-06-10T06:52:54;54402.53;;;-139.56;100.00
22938;BME280;11634;42.734;23.298;2023-06-10T06:55:19;54402.53;;;-139.56;100.00
22938;BME280;11634;42.734;23.298;2023-06-10T06:57:45;54402.53;;;-139.56;100.00
22938;BME280;11634;42.734;23.298;2023-06-10T07:00:12;54402.53;;;-139.56;100.00
22938;BME280;11634;42.734;23.298;2023-06-10T07:02:38;54402.53;;;-139.56;100.00
22938;BME280;11634;42.734;23.298;2023-06-10T07:05:03;54402.53;;;-139.56;100.00
22938;BME280;11634;42.734;23.298;2023-06-10T07:07:29;54402.53;;;-139.56;100.00
22938;BME280;11634;42.734;23.298;2023-06-10T07:09:55;54402.53;;;-139.56;100.00
22938;BME280;11634;42.734;23.298;2023-06-10T07:12:23;54402.53;;;-139.56;100.00
22938;BME280;11634;42.734;23.298;2023-06-10T07:14:52;54402.53;;;-139.56;100.00
22938;BME280;11634;42.734;23.298;2023-06-10T07:17:17;54402.53;;;-139.56;100.00
22938;BME280;11634;42.734;23.298;2023-06-10T07:19:44;54402.53;;;-139.56;100.00
22938;BME280;11634;42.734;23.298;2023-06-10T07:22:09;54402.53;;;-139.56;100.00
22938;BME280;11634;42.734;23.298;2023-06-10T07:24:35;54402.53;;;-139.56;100.00
22938;BME280;11634;42.734;23.298;2023-06-10T07:27:04;54402.53;;;-139.56;100.00
22938;BME280;11634;42.734;23.298;2023-06-10T07:29:33;54402.53;;;-139.56;100.00
22938;BME280;11634;42.734;23.298;2023-06-10T07:32:04;54402.53;;;-139.56;100.00
22938;BME280;11634;42.734;23.298;2023-06-10T07:34:30;54402.53;;;-139.56;100.00
22938;BME280;11634;42.734;23.298;2023-06-10T07:36:56;54402.53;;;-139.56;100.00
22938;BME280;11634;42.734;23.298;2023-06-10T07:39:21;54402.53;;;-139.56;100.00
22938;BME280;11634;42.734;23.298;2023-06-10T07:41:47;54402.53;;;-139.56;100.00
22938;BME280;11634;42.734;23.298;2023-06-10T07:44:14;54402.53;;;-139.56;100.00
22938;BME280;11634;42.734;23.298;2023-06-10T07:46:40;54402.53;;;-139.56;100.00
22938;BME280;11634;42.734;23.298;2023-06-10T07:49:05;54402.53;;;-139.56;100.00
22938;BME280;11634;42.734;23.298;2023-06-10T07:51:31;54402.53;;;-139.56;100.00
22938;BME280;11634;42.734;23.298;2023-06-10T07:53:57;54402.53;;;-139.56;100.00
22938;BME280;11634;42.734;23.298;2023-06-10T07:56:22;54402.53;;;-139.56;100.00
22938;BME280;11634;42.734;23.298;2023-06-10T07:58:48;54402.53;;;-139.56;100.00
22938;BME280;11634;42.734;23.298;2023-06-10T08:01:13;54402.53;;;-139.56;100.00
22938;BME280;11634;42.734;23.298;2023-06-10T08:03:39;54402.53;;;-139.56;100.00
22938;BME280;11634;42.734;23.298;2023-06-10T08:06:04;54402.53;;;-139.56;100.00
22938;BME280;11634;42.734;23.298;2023-06-10T08:08:31;54402.53;;;-139.56;100.00
22938;BME280;11634;42.734;23.298;2023-06-10T08:10:59;54402.53;;;-139.56;100.00
22938;BME280;11634;42.734;23.298;2023-06-10T08:13:25;54402.53;;;-139.56;100.00
22938;BME280;11634;42.734;23.298;2023-06-10T08:15:51;54402.53;;;-139.56;100.00
22938;BME280;11634;42.734;23.298;2023-06-10T08:18:18;54402.53;;;-139.56;100.00
22938;BME280;11634;42.734;23.298;2023-06-10T08:20:44;54402.53;;;-139.56;100.00
22938;BME280;11634;42.734;23.298;2023-06-10T08:23:10;54402.53;;;-139.56;100.00
22938;BME280;11634;42.734;23.298;2023-06-10T08:25:35;54402.53;;;-139.56;100.00
22938;BME280;11634;42.734;23.298;2023-06-10T08:28:01;54402.53;;;-139.56;100.00
22938;BME280;11634;42.734;23.298;2023-06-10T08:30:27;54402.53;;;-139.56;100.00
22938;BME280;11634;42.734;23.298;2023-06-10T08:32:52;54402.53;;;-139.56;100.00
22938;BME280;11634;42.734;23.298;2023-06-10T08:35:19;54402.53;;;-139.56;100.00
22938;BME280;11634;42.734;23.298;2023-06-10T08:37:45;54402.53;;;-139.56;100.00
22938;BME280;11634;42.734;23.298;2023-06-10T08:40:12;54402.53;;;-139.56;100.00
22938;BME280;11634;42.734;23.298;2023-06-10T08:43:06;54402.53;;;-139.56;100.00
22938;BME280;11634;42.734;23.298;2023-06-10T08:45:35;54402.53;;;-139.56;100.00
22938;BME280;11634;42.734;23.298;2023-06-10T08:48:03;54402.53;;;-139.56;100.00
22938;BME280;11634;42.734;23.298;2023-06-10T08:50:38;54402.53;;;-139.56;100.00
22938;BME280;11634;42.734;23.298;2023-06-10T08:53:05;54402.53;;;-139.56;100.00
22938;BME280;11634;42.734;23.298;2023-06-10T08:55:31;54402.53;;;-139.56;100.00
22938;BME280;11634;42.734;23.298;2023-06-10T08:58:01;54402.53;;;-139.56;100.00
22938;BME280;11634;42.734;23.298;2023-06-10T09:00:28;54402.53;;;-139.56;100.00
22938;BME280;11634;42.734;23.298;2023-06-10T09:02:54;54402.53;;;-139.56;100.00
22938;BME280;11634;42.734;23.298;2023-06-10T09:05:20;54402.53;;;-139.56;100.00
22938;BME280;11634;42.734;23.298;2023-06-10T09:07:48;54402.53;;;-139.56;100.00
22938;BME280;11634;42.734;23.298;2023-06-10T09:10:13;54402.53;;;-139.56;100.00
22938;BME280;11634;42.734;23.298;2023-06-10T09:12:40;54402.53;;;-139.56;100.00
22938;BME280;11634;42.734;23.298;2023-06-10T09:15:07;54402.53;;;-139.56;100.00
22938;BME280;11634;42.734;23.298;2023-06-10T09:17:33;54402.53;;;-139.56;100.00
22938;BME280;11634;42.734;23.298;2023-06-10T09:19:59;54402.53;;;-139.56;100.00
22938;BME280;11634;42.734;23.298;2023-06-10T09:22:25;54402.53;;;-139.56;100.00
22938;BME280;11634;42.734;23.298;2023-06-10T09:25:08;54402.53;;;-139.56;100.00
22938;BME280;11634;42.734;23.298;2023-06-10T09:30:10;54402.53;;;-139.56;100.00
22938;BME280;11634;42.734;23.298;2023-06-10T09:32:39;54402.53;;;-139.56;100.00
22938;BME280;11634;42.734;23.298;2023-06-10T09:35:09;54402.53;;;-139.56;100.00
22938;BME280;11634;42.734;23.298;2023-06-10T09:37:38;54402.53;;;-139.56;100.00
22938;BME280;11634;42.734;23.298;2023-06-10T09:40:05;54402.53;;;-139.56;100.00
22938;BME280;11634;42.734;23.298;2023-06-10T09:42:36;54402.53;;;-139.56;100.00
22938;BME280;11634;42.734;23.298;2023-06-10T09:45:03;54402.53;;;-139.56;100.00
22938;BME280;11634;42.734;23.298;2023-06-10T09:47:29;54402.53;;;-139.56;100.00
22938;BME280;11634;42.734;23.298;2023-06-10T09:49:54;54402.53;;;-139.56;100.00
22938;BME280;11634;42.734;23.298;2023-06-10T09:52:25;54402.53;;;-139.56;100.00
22938;BME280;11634;42.734;23.298;2023-06-10T09:54:51;54402.53;;;-139.56;100.00
22938;BME280;11634;42.734;23.298;2023-06-10T09:57:20;54402.53;;;-139.56;100.00
22938;BME280;11634;42.734;23.298;2023-06-10T09:59:55;54402.53;;;-139.56;100.00
22938;BME280;11634;42.734;23.298;2023-06-10T10:02:23;54402.53;;;-139.56;100.00
22938;BME280;11634;42.734;23.298;2023-06-10T10:04:49;54402.53;;;-139.56;100.00
22938;BME280;11634;42.734;23.298;2023-06-10T10:07:14;54402.53;;;-139.56;100.00
22938;BME280;11634;42.734;23.298;2023-06-10T10:09:42;54402.53;;;-139.56;100.00
22938;BME280;11634;42.734;23.298;2023-06-10T10:12:13;54402.53;;;-139.56;100.00
22938;BME280;11634;42.734;23.298;2023-06-10T10:14:46;54402.53;;;-139.56;100.00
22938;BME280;11634;42.734;23.298;2023-06-10T10:17:15;54402.53;;;-139.56;100.00
22938;BME280;11634;42.734;23.298;2023-06-10T10:19:47;54402.53;;;-139.56;100.00
22938;BME280;11634;42.734;23.298;2023-06-10T10:22:22;54402.53;;;-139.56;100.00
22938;BME280;11634;42.734;23.298;2023-06-10T10:24:53;54402.53;;;-139.56;100.00
22938;BME280;11634;42.734;23.298;2023-06-10T10:27:26;54402.53;;;-139.56;100.00
22938;BME280;11634;42.734;23.298;2023-06-10T10:30:10;54402.53;;;-139.56;100.00
22938;BME280;11634;42.734;23.298;2023-06-10T10:35:20;54402.53;;;-139.56;100.00
22938;BME280;11634;42.734;23.298;2023-06-10T10:37:54;54402.53;;;-139.56;100.00
22938;BME280;11634;42.734;23.298;2023-06-10T10:40:26;54402.53;;;-139.56;100.00
22938;BME280;11634;42.734;23.298;2023-06-10T10:42:56;54402.53;;;-139.56;100.00
22938;BME280;11634;42.734;23.298;2023-06-10T10:45:27;54402.53;;;-139.56;100.00
22938;BME280;11634;42.734;23.298;2023-06-10T10:47:56;54402.53;;;-139.56;100.00
22938;BME280;11634;42.734;23.298;2023-06-10T10:50:23;54402.53;;;-139.56;100.00
22938;BME280;11634;42.734;23.298;2023-06-10T10:53:10;54402.53;;;-139.56;100.00
22938;BME280;11634;42.734;23.298;2023-06-10T10:55:58;54402.53;;;-139.56;100.00
22938;BME280;11634;42.734;23.298;2023-06-10T10:58:31;54402.53;;;-139.56;100.00
22938;BME280;11634;42.734;23.298;2023-06-10T11:01:10;54402.53;;;-139.56;100.00
22938;BME280;11634;42.734;23.298;2023-06-10T11:03:42;54402.53;;;-139.56;100.00
22938;BME280;11634;42.734;23.298;2023-06-10T11:06:15;54402.53;;;-139.56;100.00
22938;BME280;11634;42.734;23.298;2023-06-10T11:11:27;54402.53;;;-139.56;100.00
22938;BME280;11634;42.734;23.298;2023-06-10T11:14:06;54402.53;;;-139.56;100.00
22938;BME280;11634;42.734;23.298;2023-06-10T11:16:42;54402.53;;;-139.56;100.00
22938;BME280;11634;42.734;23.298;2023-06-10T11:19:08;54402.53;;;-139.56;100.00
22938;BME280;11634;42.734;23.298;2023-06-10T11:21:59;54402.53;;;-139.56;100.00
22938;BME280;11634;42.734;23.298;2023-06-10T11:24:28;54402.53;;;-139.56;100.00
22938;BME280;11634;42.734;23.298;2023-06-10T11:26:54;54402.53;;;-139.56;100.00
22938;BME280;11634;42.734;23.298;2023-06-10T11:29:21;54402.53;;;-139.56;100.00
22938;BME280;11634;42.734;23.298;2023-06-10T11:31:50;54402.53;;;-139.56;100.00
22938;BME280;11634;42.734;23.298;2023-06-10T11:34:23;54402.53;;;-139.56;100.00
22938;BME280;11634;42.734;23.298;2023-06-10T11:36:51;54402.53;;;-139.56;100.00
22938;BME280;11634;42.734;23.298;2023-06-10T11:39:17;54402.53;;;-139.56;100.00
22938;BME280;11634;42.734;23.298;2023-06-10T11:41:43;54402.53;;;-139.56;100.00
22938;BME280;11634;42.734;23.298;2023-06-10T11:44:13;54402.53;;;-139.56;100.00
22938;BME280;11634;42.734;23.298;2023-06-10T11:46:40;54402.53;;;-139.56;100.00
22938;BME280;11634;42.734;23.298;2023-06-10T11:49:08;54402.53;;;-139.56;100.00
22938;BME280;11634;42.734;23.298;2023-06-10T11:51:40;54402.53;;;-139.56;100.00
22938;BME280;11634;42.734;23.298;2023-06-10T11:54:10;54402.53;;;-139.56;100.00
22938;BME280;11634;42.734;23.298;2023-06-10T11:56:36;54402.53;;;-139.56;100.00
22938;BME280;11634;42.734;23.298;2023-06-10T11:59:05;54402.53;;;-139.56;100.00
22938;BME280;11634;42.734;23.298;2023-06-10T12:01:38;54402.53;;;-139.56;100.00
22938;BME280;11634;42.734;23.298;2023-06-10T12:04:08;54402.53;;;-139.56;100.00
22938;BME280;11634;42.734;23.298;2023-06-10T12:06:50;54402.53;;;-139.56;100.00
22938;BME280;11634;42.734;23.298;2023-06-10T12:09:24;54402.53;;;-139.56;100.00
22938;BME280;11634;42.734;23.298;2023-06-10T12:11:56;54402.53;;;-139.56;100.00
22938;BME280;11634;42.734;23.298;2023-06-10T12:14:51;54402.53;;;-139.56;100.00
22938;BME280;11634;42.734;23.298;2023-06-10T12:17:24;54402.53;;;-139.56;100.00
22938;BME280;11634;42.734;23.298;2023-06-10T12:19:50;54402.53;;;-139.56;100.00
22938;BME280;11634;42.734;23.298;2023-06-10T12:22:16;54402.53;;;-139.56;100.00
22938;BME280;11634;42.734;23.298;2023-06-10T12:25:00;54402.53;;;-139.56;100.00
22938;BME280;11634;42.734;23.298;2023-06-10T12:27:31;54402.53;;;-139.56;100.00
22938;BME280;11634;42.734;23.298;2023-06-10T12:29:58;54402.53;;;-139.56;100.00
22938;BME280;11634;42.734;23.298;2023-06-10T12:32:55;54402.53;;;-139.56;100.00
22938;BME280;11634;42.734;23.298;2023-06-10T12:35:23;54402.53;;;-139.56;100.00
22938;BME280;11634;42.734;23.298;2023-06-10T12:40:28;54402.53;;;-139.56;100.00
22938;BME280;11634;42.734;23.298;2023-06-10T12:42:55;54402.53;;;-139.56;100.00